createdAt,value
2022-08-09T00:00:23.419Z,2.70
2022-08-09T00:02:52.357Z,3.30
2022-08-09T00:06:19.335Z,2.80
2022-08-09T00:08:11.375Z,2.60
2022-08-09T00:10:59.900Z,3.10
2022-08-09T00:13:28.163Z,3.07
2022-08-09T00:16:02.793Z,3.20
2022-08-09T00:18:34.954Z,3.13
2022-08-09T00:21:04.834Z,3.13
2022-08-09T00:23:55.642Z,2.93
2022-08-09T00:26:29.463Z,3.47
2022-08-09T00:29:01.773Z,3.40
2022-08-09T00:31:59.387Z,3.10
2022-08-09T00:34:19.566Z,3.17
2022-08-09T00:36:48.101Z,3.47
2022-08-09T00:40:12.596Z,3.30
2022-08-09T00:44:14.158Z,3.33
2022-08-09T00:44:54.504Z,3.57
2022-08-09T00:47:24.607Z,3.20
2022-08-09T00:49:55.078Z,3.23
2022-08-09T00:52:30.665Z,4.17
2022-08-09T00:55:01.082Z,3.80
2022-08-09T00:57:33.812Z,3.53
2022-08-09T01:00:22.029Z,3.67
2022-08-09T01:02:54.655Z,3.73
2022-08-09T01:05:53.438Z,3.80
2022-08-09T01:08:27.319Z,3.80
2022-08-09T01:11:08.462Z,4.07
2022-08-09T01:13:58.911Z,4.30
2022-08-09T01:16:32.806Z,4.00
2022-08-09T01:19:17.177Z,4.10
2022-08-09T01:22:16.633Z,4.03
2022-08-09T01:24:55.072Z,3.87
2022-08-09T01:27:27.525Z,4.00
2022-08-09T01:30:00.884Z,3.87
2022-08-09T01:32:33.764Z,4.00
2022-08-09T01:35:06.965Z,3.87
2022-08-09T01:38:10.147Z,4.33
2022-08-09T01:40:36.772Z,4.13
2022-08-09T01:43:07.355Z,4.17
2022-08-09T01:45:44.712Z,4.20
2022-08-09T01:48:16.165Z,4.10
2022-08-09T01:50:48.173Z,4.20
2022-08-09T01:53:20.096Z,4.50
2022-08-09T01:55:50.677Z,4.17
2022-08-09T01:58:24.238Z,4.50
2022-08-09T02:00:54.363Z,4.63
2022-08-09T02:03:23.199Z,4.73
2022-08-09T02:06:06.965Z,4.50
2022-08-09T02:08:58.783Z,4.80
2022-08-09T02:11:42.842Z,4.53
2022-08-09T02:14:25.686Z,4.00
2022-08-09T02:17:15.434Z,4.30
2022-08-09T02:19:45.806Z,4.13
2022-08-09T02:22:31.796Z,5.00
2022-08-09T02:25:06.795Z,4.73
2022-08-09T02:27:57.457Z,5.10
2022-08-09T02:30:30.140Z,4.77
2022-08-09T02:33:01.592Z,4.60
2022-08-09T02:36:01.212Z,4.20
2022-08-09T02:38:28.828Z,4.30
2022-08-09T02:41:02.912Z,4.80
2022-08-09T02:43:53.735Z,4.50
2022-08-09T02:46:25.542Z,4.67
2022-08-09T02:48:57.335Z,4.40
2022-08-09T02:51:27.191Z,4.93
2022-08-09T02:54:00.994Z,4.17
2022-08-09T02:56:31.552Z,4.53
2022-08-09T02:59:01.792Z,4.20
2022-08-09T03:01:58.733Z,4.60
2022-08-09T03:04:21.275Z,4.97
2022-08-09T03:06:59.839Z,4.53
2022-08-09T03:09:42.972Z,4.73
2022-08-09T03:12:13.443Z,4.70
2022-08-09T03:14:43.955Z,4.63
2022-08-09T03:17:16.369Z,4.73
2022-08-09T03:19:58.232Z,4.57
2022-08-09T03:22:31.281Z,4.40
2022-08-09T03:25:06.387Z,4.80
2022-08-09T03:27:51.440Z,4.97
2022-08-09T03:30:30.220Z,5.30
2022-08-09T03:33:13.172Z,5.20
2022-08-09T03:36:15.796Z,5.00
2022-08-09T03:38:37.279Z,5.40
2022-08-09T03:41:10.278Z,5.20
2022-08-09T03:44:03.512Z,5.17
2022-08-09T03:46:32.690Z,5.03
2022-08-09T03:49:08.821Z,5.13
2022-08-09T03:51:57.487Z,5.37
2022-08-09T03:54:31.661Z,4.90
2022-08-09T03:57:04.475Z,5.80
2022-08-09T03:59:53.319Z,5.20
2022-08-09T04:02:27.185Z,5.10
2022-08-09T04:04:58.921Z,4.67
2022-08-09T04:07:33.688Z,5.30
2022-08-09T04:10:20.449Z,5.77
2022-08-09T04:12:51.421Z,4.90
2022-08-09T04:15:39.258Z,5.33
2022-08-09T04:18:16.590Z,5.73
2022-08-09T04:20:47.376Z,5.40
2022-08-09T04:23:16.847Z,5.13
2022-08-09T04:25:52.323Z,5.57
2022-08-09T04:28:36.253Z,5.63
2022-08-09T04:31:09.287Z,5.57
2022-08-09T04:33:51.566Z,5.40
2022-08-09T04:36:24.156Z,5.73
2022-08-09T04:38:52.469Z,6.13
2022-08-09T04:41:23.788Z,5.77
2022-08-09T04:44:05.134Z,6.27
2022-08-09T04:46:37.898Z,6.23
2022-08-09T04:49:40.149Z,6.17
2022-08-09T04:52:21.856Z,5.70
2022-08-09T04:55:03.970Z,5.40
2022-08-09T04:57:58.747Z,6.53
2022-08-09T05:00:22.822Z,6.50
2022-08-09T05:02:52.859Z,5.37
2022-08-09T05:05:31.852Z,5.77
2022-08-09T05:08:14.923Z,6.07
2022-08-09T05:10:43.494Z,5.63
2022-08-09T05:13:12.578Z,6.37
2022-08-09T05:15:48.218Z,6.50
2022-08-09T05:18:39.659Z,6.30
2022-08-09T05:21:09.697Z,4.87
2022-08-09T05:23:59.838Z,6.23
2022-08-09T05:26:36.537Z,6.97
2022-08-09T05:29:05.832Z,6.47
2022-08-09T05:31:44.239Z,6.90
2022-08-09T05:34:18.546Z,7.30
2022-08-09T05:36:48.206Z,7.23
2022-08-09T05:39:28.141Z,7.13
2022-08-09T05:42:01.506Z,6.40
2022-08-09T05:44:34.965Z,6.93
2022-08-09T05:47:04.938Z,6.50
2022-08-09T05:50:23.870Z,6.87
2022-08-09T05:52:24.756Z,6.50
2022-08-09T05:54:55.246Z,6.47
2022-08-09T05:57:25.010Z,6.57
2022-08-09T06:00:13.051Z,5.87
2022-08-09T06:02:42.333Z,6.93
2022-08-09T06:05:14.589Z,7.40
2022-08-09T06:07:44.305Z,6.90
2022-08-09T06:10:38.935Z,7.03
2022-08-09T06:13:18.333Z,7.20
2022-08-09T06:15:50.978Z,7.27
2022-08-09T06:18:20.899Z,6.63
2022-08-09T06:20:56.876Z,6.57
2022-08-09T06:23:58.416Z,6.90
2022-08-09T06:26:14.886Z,6.43
2022-08-09T06:28:48.752Z,7.30
2022-08-09T06:31:16.699Z,7.40
2022-08-09T06:33:52.862Z,6.33
2022-08-09T06:36:27.342Z,6.57
2022-08-09T06:38:58.444Z,7.53
2022-08-09T06:41:56.744Z,7.00
2022-08-09T06:44:21.171Z,6.70
2022-08-09T06:46:51.015Z,6.27
2022-08-09T06:49:44.738Z,5.93
2022-08-09T06:52:15.673Z,6.37
2022-08-09T06:54:43.980Z,6.17
2022-08-09T06:57:14.058Z,6.30
2022-08-09T07:00:48.871Z,6.30
2022-08-09T07:02:31.721Z,6.60
2022-08-09T07:05:00.237Z,6.20
2022-08-09T07:08:00.650Z,6.00
2022-08-09T07:10:29.692Z,5.83
2022-08-09T07:13:27.646Z,5.53
2022-08-09T07:15:53.785Z,6.03
2022-08-09T07:18:38.645Z,5.90
2022-08-09T07:21:08.026Z,5.90
2022-08-09T07:23:36.459Z,5.33
2022-08-09T07:26:24.162Z,5.60
2022-08-09T07:29:09.007Z,5.23
2022-08-09T07:31:45.270Z,4.93
2022-08-09T07:34:19.545Z,5.47
2022-08-09T07:36:49.710Z,5.50
2022-08-09T07:39:19.934Z,5.33
2022-08-09T07:41:54.906Z,5.37
2022-08-09T07:44:51.071Z,5.17
2022-08-09T07:47:15.679Z,5.40
2022-08-09T07:50:04.542Z,5.20
2022-08-09T07:52:32.551Z,5.47
2022-08-09T07:55:01.462Z,5.40
2022-08-09T07:57:37.016Z,5.93
2022-08-09T08:00:08.936Z,6.00
2022-08-09T08:02:43.580Z,5.60
2022-08-09T08:05:18.856Z,4.83
2022-08-09T08:09:00.418Z,4.47
2022-08-09T08:10:35.935Z,4.97
2022-08-09T08:13:04.803Z,4.43
2022-08-09T08:15:37.764Z,4.90
2022-08-09T08:18:07.419Z,4.50
2022-08-09T08:20:36.423Z,5.13
2022-08-09T08:23:15.984Z,5.57
2022-08-09T08:25:48.279Z,4.73
2022-08-09T08:28:26.098Z,6.23
2022-08-09T08:31:14.243Z,4.90
2022-08-09T08:33:54.101Z,4.60
2022-08-09T08:36:28.643Z,4.20
2022-08-09T08:38:57.866Z,4.40
2022-08-09T08:41:42.026Z,4.37
2022-08-09T08:44:15.092Z,4.10
2022-08-09T08:47:02.165Z,3.87
2022-08-09T08:49:38.927Z,4.10
2022-08-09T08:52:48.591Z,4.10
2022-08-09T08:55:06.650Z,3.47
2022-08-09T08:57:37.064Z,3.13
2022-08-09T09:00:20.484Z,2.70
2022-08-09T09:03:03.022Z,2.30
2022-08-09T09:06:00.085Z,2.70
2022-08-09T09:08:30.419Z,1.87
2022-08-09T09:11:03.240Z,2.00
2022-08-09T09:13:41.811Z,2.50
2022-08-09T09:16:30.720Z,2.57
2022-08-09T09:22:07.900Z,2.00
2022-08-09T09:24:43.560Z,1.93
2022-08-09T09:28:03.196Z,1.93
2022-08-09T09:30:26.205Z,2.00
2022-08-09T09:33:16.140Z,2.00
2022-08-09T09:36:02.459Z,2.00
2022-08-09T09:38:42.780Z,1.73
2022-08-09T09:41:11.385Z,1.60
2022-08-09T09:43:41.415Z,1.90
2022-08-09T09:46:45.986Z,1.90
2022-08-09T09:49:49.699Z,1.80
2022-08-09T09:52:33.468Z,1.70
2022-08-09T09:55:16.165Z,1.80
2022-08-09T09:58:04.268Z,2.00
2022-08-09T10:00:33.729Z,1.70
2022-08-09T10:03:11.562Z,1.60
2022-08-09T10:06:03.637Z,1.70
2022-08-09T10:08:54.384Z,1.63
2022-08-09T10:11:59.893Z,1.60
2022-08-09T10:14:30.752Z,1.80
2022-08-09T10:17:24.106Z,1.80
2022-08-09T10:19:58.126Z,1.77
2022-08-09T10:22:33.310Z,1.70
2022-08-09T10:25:10.750Z,1.60
2022-08-09T10:27:55.868Z,1.60
2022-08-09T10:34:05.001Z,1.73
2022-08-09T10:36:04.447Z,1.60
2022-08-09T10:38:54.461Z,1.97
2022-08-09T10:41:22.485Z,1.80
2022-08-09T10:43:59.260Z,2.10
2022-08-09T10:47:01.397Z,2.10
2022-08-09T10:49:51.339Z,1.77
2022-08-09T10:52:36.488Z,1.70
2022-08-09T10:55:23.880Z,1.80
2022-08-09T10:57:56.033Z,1.50
2022-08-09T11:00:41.780Z,2.00
2022-08-09T11:03:49.766Z,1.77
2022-08-09T11:06:22.841Z,1.50
2022-08-09T11:08:53.898Z,1.80
2022-08-09T11:11:22.965Z,2.53
2022-08-09T11:14:28.007Z,2.00
2022-08-09T11:16:58.136Z,1.83
2022-08-09T11:20:12.155Z,1.80
2022-08-09T11:23:07.032Z,2.10
2022-08-09T11:25:47.783Z,1.80
2022-08-09T11:28:55.765Z,2.13
2022-08-09T11:31:50.072Z,2.07
2022-08-09T11:34:41.977Z,1.60
2022-08-09T11:37:18.166Z,1.90
2022-08-09T11:40:05.303Z,1.90
2022-08-09T11:42:46.955Z,2.10
2022-08-09T11:45:26.399Z,1.87
2022-08-09T11:48:26.221Z,1.60
2022-08-09T11:53:00.597Z,2.00
2022-08-09T11:54:27.652Z,1.80
2022-08-09T11:57:47.914Z,1.87
2022-08-09T12:00:27.249Z,1.40
2022-08-09T12:02:56.444Z,1.87
2022-08-09T12:05:37.585Z,1.70
2022-08-09T12:08:12.306Z,1.50
2022-08-09T12:10:49.508Z,1.57
2022-08-09T12:14:07.803Z,1.60
2022-08-09T12:16:37.679Z,1.90
2022-08-09T12:19:09.605Z,1.70
2022-08-09T12:21:48.773Z,1.40
2022-08-09T12:24:24.529Z,1.53
2022-08-09T12:29:11.255Z,1.70
2022-08-09T12:30:01.541Z,1.50
2022-08-09T12:32:42.136Z,1.40
2022-08-09T12:35:13.439Z,1.70
2022-08-09T12:37:51.798Z,1.50
2022-08-09T12:40:26.811Z,1.70
2022-08-09T12:42:55.543Z,1.40
2022-08-09T12:45:34.357Z,1.30
2022-08-09T12:48:10.720Z,1.40
2022-08-09T12:50:49.948Z,1.30
2022-08-09T12:53:35.097Z,1.53
2022-08-09T12:56:40.139Z,1.60
2022-08-09T12:59:10.385Z,1.40
2022-08-09T13:01:47.011Z,1.30
2022-08-09T13:04:36.497Z,1.63
2022-08-09T13:07:14.631Z,1.60
2022-08-09T13:09:52.660Z,1.30
2022-08-09T13:12:25.726Z,1.40
2022-08-09T13:15:05.272Z,1.50
2022-08-09T13:18:02.516Z,1.53
2022-08-09T13:20:37.394Z,1.50
2022-08-09T13:24:17.626Z,1.37
2022-08-09T13:26:06.670Z,1.30
2022-08-09T13:28:39.900Z,1.60
2022-08-09T13:32:13.376Z,1.50
2022-08-09T13:33:58.451Z,1.30
2022-08-09T13:36:40.706Z,1.30
2022-08-09T13:41:18.988Z,1.47
2022-08-09T13:42:03.533Z,1.70
2022-08-09T13:44:33.780Z,1.60
2022-08-09T13:47:27.028Z,1.40
2022-08-09T13:49:56.348Z,1.30
2022-08-09T13:52:29.870Z,1.30
2022-08-09T13:55:02.093Z,1.50
2022-08-09T13:57:36.441Z,1.60
2022-08-09T14:00:12.134Z,1.50
2022-08-09T14:03:04.678Z,1.53
2022-08-09T14:05:58.520Z,1.80
2022-08-09T14:08:24.110Z,1.60
2022-08-09T14:10:54.962Z,1.40
2022-08-09T14:13:27.925Z,1.47
2022-08-09T14:16:15.430Z,1.63
2022-08-09T14:18:50.128Z,1.33
2022-08-09T14:21:20.928Z,1.37
2022-08-09T14:23:55.159Z,1.20
2022-08-09T14:26:32.143Z,1.30
2022-08-09T14:29:08.165Z,1.30
2022-08-09T14:31:55.338Z,1.20
2022-08-09T14:34:31.201Z,1.20
2022-08-09T14:37:01.919Z,1.47
2022-08-09T14:39:40.174Z,1.37
2022-08-09T14:42:32.026Z,1.50
2022-08-09T14:46:54.312Z,1.57
2022-08-09T14:47:58.955Z,1.40
2022-08-09T14:50:29.597Z,1.30
2022-08-09T14:52:58.870Z,1.50
2022-08-09T14:55:29.164Z,1.40
2022-08-09T14:58:02.886Z,1.40
2022-08-09T15:00:32.259Z,1.50
2022-08-09T15:03:03.741Z,1.60
2022-08-09T15:05:32.808Z,1.43
2022-08-09T15:08:00.884Z,1.27
2022-08-09T15:10:29.623Z,1.60
2022-08-09T15:13:01.468Z,1.47
2022-08-09T15:15:34.522Z,1.13
2022-08-09T15:18:14.224Z,1.43
2022-08-09T15:21:57.232Z,1.40
2022-08-09T15:24:00.652Z,1.40
2022-08-09T15:26:31.097Z,1.50
2022-08-09T15:29:04.060Z,1.40
2022-08-09T15:31:42.038Z,1.27
2022-08-09T15:34:31.608Z,1.67
2022-08-09T15:37:04.271Z,1.40
2022-08-09T15:39:34.574Z,1.40
2022-08-09T15:42:03.102Z,1.30
2022-08-09T15:44:32.560Z,1.50
2022-08-09T15:47:01.424Z,1.60
2022-08-09T15:49:32.852Z,1.70
2022-08-09T15:52:04.438Z,1.30
2022-08-09T15:54:46.323Z,1.53
2022-08-09T15:57:19.332Z,1.40
2022-08-09T16:00:03.819Z,1.43
2022-08-09T16:02:32.686Z,1.77
2022-08-09T16:05:03.903Z,1.40
2022-08-09T16:07:38.975Z,1.30
2022-08-09T16:10:17.160Z,1.70
2022-08-09T16:12:58.284Z,1.53
2022-08-09T16:16:04.504Z,1.50
2022-08-09T16:18:15.648Z,1.60
2022-08-09T16:20:46.688Z,1.43
2022-08-09T16:23:19.924Z,1.20
2022-08-09T16:25:49.683Z,1.30
2022-08-09T16:28:17.912Z,1.30
2022-08-09T16:30:59.241Z,1.20
2022-08-09T16:33:30.970Z,1.40
2022-08-09T16:36:14.395Z,1.40
2022-08-09T16:38:51.481Z,1.57
2022-08-09T16:41:39.166Z,1.40
2022-08-09T16:44:09.155Z,1.43
2022-08-09T16:46:37.159Z,1.50
2022-08-09T16:50:30.565Z,1.40
2022-08-09T16:52:12.224Z,1.43
2022-08-09T16:54:41.410Z,1.40
2022-08-09T16:57:10.718Z,1.70
2022-08-09T16:59:38.765Z,1.50
2022-08-09T17:02:13.648Z,1.50
2022-08-09T17:04:46.289Z,1.30
2022-08-09T17:08:45.727Z,1.40
2022-08-09T17:10:08.673Z,1.43
2022-08-09T17:12:36.941Z,1.63
2022-08-09T17:15:31.133Z,1.30
2022-08-09T17:18:00.349Z,1.60
2022-08-09T17:20:37.674Z,1.40
2022-08-09T17:23:14.747Z,1.50
2022-08-09T17:25:43.147Z,1.60
2022-08-09T17:28:30.476Z,1.40
2022-08-09T17:30:59.291Z,1.60
2022-08-09T17:33:27.161Z,1.60
2022-08-09T17:36:06.372Z,1.30
2022-08-09T17:38:57.616Z,1.30
2022-08-09T17:41:38.659Z,1.23
2022-08-09T17:44:42.383Z,1.60
2022-08-09T17:46:58.103Z,1.40
2022-08-09T17:49:26.362Z,1.23
2022-08-09T17:51:58.483Z,1.43
2022-08-09T17:54:29.890Z,1.60
2022-08-09T17:56:59.461Z,1.40
2022-08-09T17:59:37.986Z,1.30
2022-08-09T18:02:14.860Z,1.30
2022-08-09T18:04:49.576Z,1.30
2022-08-09T18:07:23.237Z,1.40
2022-08-09T18:10:05.144Z,1.30
2022-08-09T18:12:40.897Z,1.63
2022-08-09T18:15:21.377Z,1.20
2022-08-09T18:18:25.177Z,1.50
2022-08-09T18:21:11.046Z,1.23
2022-08-09T18:24:09.673Z,1.40
2022-08-09T18:26:32.154Z,1.30
2022-08-09T18:30:36.363Z,1.20
2022-08-09T18:31:55.175Z,1.23
2022-08-09T18:34:24.484Z,1.40
2022-08-09T18:36:53.189Z,1.27
2022-08-09T18:39:22.211Z,1.30
2022-08-09T18:41:52.857Z,1.60
2022-08-09T18:44:25.455Z,1.20
2022-08-09T18:47:08.449Z,1.07
2022-08-09T18:49:41.674Z,1.30
2022-08-09T18:52:12.105Z,1.20
2022-08-09T18:54:42.238Z,1.27
2022-08-09T18:57:23.240Z,1.07
2022-08-09T18:59:55.182Z,1.30
2022-08-09T19:02:31.854Z,1.30
2022-08-09T19:05:14.762Z,1.23
2022-08-09T19:08:04.249Z,1.50
2022-08-09T19:10:39.533Z,1.30
2022-08-09T19:13:23.130Z,1.33
2022-08-09T19:15:59.495Z,1.30
2022-08-09T19:18:33.903Z,1.40
2022-08-09T19:21:09.642Z,1.47
2022-08-09T19:24:32.452Z,1.20
2022-08-09T19:26:34.777Z,1.17
2022-08-09T19:29:15.289Z,1.47
2022-08-09T19:31:51.316Z,1.30
2022-08-09T19:34:22.780Z,1.50
2022-08-09T19:36:54.709Z,1.60
2022-08-09T19:39:28.937Z,1.30
2022-08-09T19:42:14.985Z,1.60
2022-08-09T19:44:51.520Z,1.50
2022-08-09T19:47:22.700Z,1.40
2022-08-09T19:50:10.201Z,1.20
2022-08-09T19:52:49.431Z,1.13
2022-08-09T19:55:30.617Z,1.40
2022-08-09T19:58:15.922Z,1.40
2022-08-09T20:00:47.338Z,1.10
2022-08-09T20:04:12.415Z,1.20
2022-08-09T20:06:10.474Z,1.30
2022-08-09T20:08:55.543Z,1.40
2022-08-09T20:11:43.286Z,1.27
2022-08-09T20:14:16.408Z,1.43
2022-08-09T20:16:50.210Z,1.10
2022-08-09T20:19:42.930Z,1.63
2022-08-09T20:22:13.948Z,1.50
2022-08-09T20:24:54.176Z,1.60
2022-08-09T20:27:25.454Z,1.30
2022-08-09T20:29:58.711Z,1.53
2022-08-09T20:32:30.773Z,1.30
2022-08-09T20:35:01.453Z,1.33
2022-08-09T20:37:37.074Z,1.50
2022-08-09T20:40:26.344Z,1.33
2022-08-09T20:42:59.709Z,1.50
2022-08-09T20:46:01.614Z,1.40
2022-08-09T20:48:21.312Z,1.37
2022-08-09T20:50:55.812Z,1.50
2022-08-09T20:53:37.542Z,1.43
2022-08-09T20:56:19.972Z,1.33
2022-08-09T20:58:48.964Z,1.33
2022-08-09T21:01:34.379Z,1.40
2022-08-09T21:05:49.639Z,1.43
2022-08-09T21:06:55.658Z,1.20
2022-08-09T21:09:32.595Z,1.47
2022-08-09T21:14:42.709Z,1.47
2022-08-09T21:18:22.453Z,1.23
2022-08-09T21:20:22.978Z,1.40
2022-08-09T21:22:54.956Z,1.20
2022-08-09T21:25:44.193Z,1.50
2022-08-09T21:28:34.226Z,1.30
2022-08-09T21:31:16.111Z,1.40
2022-08-09T21:33:50.711Z,1.20
2022-08-09T21:36:23.204Z,1.43
2022-08-09T21:38:57.287Z,1.53
2022-08-09T21:42:03.855Z,1.20
2022-08-09T21:44:32.904Z,1.57
2022-08-09T21:47:07.785Z,1.50
2022-08-09T21:49:39.656Z,1.50
2022-08-09T21:52:17.180Z,1.50
2022-08-09T21:54:51.083Z,1.50
2022-08-09T21:57:39.385Z,1.67
2022-08-09T22:00:25.298Z,1.63
2022-08-09T22:02:59.096Z,1.60
2022-08-09T22:05:35.800Z,1.67
2022-08-09T22:08:13.596Z,1.67
2022-08-09T22:11:50.196Z,1.50
2022-08-09T22:13:34.490Z,1.50
2022-08-09T22:16:07.768Z,1.43
2022-08-09T22:18:37.793Z,1.40
2022-08-09T22:21:09.949Z,1.50
2022-08-09T22:23:59.548Z,1.40
2022-08-09T22:26:35.249Z,1.57
2022-08-09T22:29:07.355Z,1.80
2022-08-09T22:31:36.611Z,1.40
2022-08-09T22:34:09.903Z,1.50
2022-08-09T22:36:46.027Z,1.53
2022-08-09T22:39:20.797Z,1.60
2022-08-09T22:42:06.063Z,1.90
2022-08-09T22:44:49.758Z,1.70
2022-08-09T22:48:11.734Z,1.30
2022-08-09T22:50:16.407Z,1.60
2022-08-09T22:52:44.682Z,1.80
2022-08-09T22:55:21.963Z,1.80
2022-08-09T22:58:00.177Z,1.63
2022-08-09T23:00:29.565Z,1.60
2022-08-09T23:02:58.411Z,1.50
2022-08-09T23:05:26.561Z,1.70
2022-08-09T23:08:22.265Z,1.60
2022-08-09T23:10:56.947Z,1.70
2022-08-09T23:13:24.979Z,1.60
2022-08-09T23:16:03.297Z,1.67
2022-08-09T23:18:31.828Z,1.73
2022-08-09T23:20:59.743Z,1.50
2022-08-09T23:23:27.609Z,1.40
2022-08-09T23:25:56.954Z,1.80
2022-08-09T23:28:25.296Z,1.70
2022-08-09T23:30:53.316Z,1.90
2022-08-09T23:33:21.727Z,2.00
2022-08-09T23:36:05.946Z,1.43
2022-08-09T23:38:48.884Z,1.90
2022-08-09T23:41:28.912Z,1.77
2022-08-09T23:43:58.342Z,1.67
2022-08-09T23:46:26.613Z,1.70
2022-08-09T23:48:54.514Z,1.53
2022-08-09T23:51:22.577Z,1.70
2022-08-09T23:53:52.458Z,1.70
2022-08-09T23:56:53.399Z,1.70
2022-08-09T23:59:12.510Z,1.70
